Irvington, AL

6:10 AM CDT on August 28, 2016 (GMT -0500)
Driftwood | | Change Station

Elev 89 ft 30.45 °N, 88.22 °W | Updated 4 seconds ago

Clear
Clear
77.2 °F
Feels Like 79 °F
N
0.2
Wind Variable Wind from NNE
Gusts 2.5 mph

Today
High -- | Low -- °F
--% Chance of Precip.
Yesterday
High -- | Low -- °F
Precip. -- in
Pressure 30.01 in
Visibility 10.0 miles
Clouds Clear
Heat Index 79 °F
Dew Point 67 °F
Humidity 71%
Rainfall 0.00 in
Snow Depth Not available.
6:27 AM 7:19 PM
Waning Crescent, 16% visible
METAR KBFM 281053Z AUTO 02007KT 10SM CLR 26/24 A3001 RMK AO2 SLP162 T02610244
Pressure 30.01 in
Visibility 10.0 miles
Clouds Clear
Heat Index 79 °F
Dew Point 67 °F
Humidity 71%
Rainfall 0.00 in
Snow Depth Not available.
6:27 AM 7:19 PM
Waning Crescent, 16% visible
METAR KBFM 281053Z AUTO 02007KT 10SM CLR 26/24 A3001 RMK AO2 SLP162 T02610244

10-Day Weather Forecast

Almanac

Astronomy

Aug. 28, 2016 Rise Set
Actual Time
Civil Twilight
Nautical Twilight
Astronomical Twilight
Moon
Length of Visible Light
Length of Day
Tomorrow will be .
, % of the Moon is Illuminated

Today's Extremes

State Highs State Lows

Community

WunderPhotos

Upload Photos

1,935,541 photos uploaded!

WunderBlog® & News

Nearby

Air Quality

  Air Quality AQ Index Pollutant
Not available.

Snow Depth

Station Depth Elevation

Earthquake Activity

City Distance Mag. Time & Date
Minimum magnitude displayed is 2.5.

Coastal Water Temperatures

Place Temperature

Stations

Nearby Weather Stations

Station Location Temp. Windchill Dew Point Humidity Wind Precip. Elev Updated Type
                   

Watches & Warnings

There are currently no watches in effect.